Will Rogers World Airport
KOKC : now visible

Airfield :











YOU CAN JOIN US ON...

 
LOGIN :

Register | Disclaimer

   EN    FR    IT 

 









Legend :    VFR   Marginal VFR   IFR   Intensive IFR   Very Intensive IFR
Visi :
Ceiling :
>= 8 km
>= 3000ft
5 to 8 km
1000 to 3000 ft
1500m to 5 km
500 to 1000 ft
800 to 1500m
200 to 500 ft
< 800m
< 200 ft
Symbols :   Thunderstorms  Fog  Heavy snow  Heavy precipitations  Wind > 20 kt






- Airport Elevation : 1295 ft
- IATA code : OKC


KOKC - Will Rogers World

CURRENT METAR :
  • 281652Z 34009KT 10SM BKN034 BKN050 OVC070 22/17 A3002 RMK AO2 SLP154 T02170167

EXPIRED METARs :
  • 281552Z 34013G21KT 10SM FEW020 OVC050 21/17 A3001 RMK AO2 SLP151 T02110167
  • 281452Z 35010KT 10SM FEW050 BKN080 BKN100 BKN250 21/17 A2998 RMK AO2 SLP143 60010 T02110172 53008

TAF KOKC
Valid from the 28 at 12:00 until the 29 at 12:00 UTC


281120Z 2812/2912 33008KT P6SM BKN025 OVC100
TEMPO 2812/2816 -RA
FM281800 34011KT P6SM BKN050
FM290300 01005KT P6SM BKN150
FM290600 35005KT P6SM SKC
KZFW FIR / North America



MET'MAP, your aeronautical weather chart ! - Copyright ORBIFLY December 2007 - Disclaimer

ORBIFLY MET'MAP TEAM :

Programming & Development : Alexandra Zaïnal
Concept & original design : Baudouin d'Aumeries
Assistance for programming : Marc-Olivier Méhu
Technical & hardware support : Manuel Goepfert

Contact : metmap@orbifly.com




SOURCES & CREDITS :

   NOAA       Earth
Advisory